sensor_id;sensor_type;location;lat;lon;timestamp;pressure;altitude;pressure_sealevel;temperature;humidity
6032;BME280;3044;43.232;27.972;2023-01-16T00:02:11;44121.88;;;-143.84;95.56
6032;BME280;3044;43.232;27.972;2023-01-16T00:04:38;44116.16;;;-143.84;95.79
6032;BME280;3044;43.232;27.972;2023-01-16T00:07:05;44112.34;;;-143.84;95.82
6032;BME280;3044;43.232;27.972;2023-01-16T00:09:32;44106.63;;;-143.84;94.98
6032;BME280;3044;43.232;27.972;2023-01-16T00:12:01;44106.63;;;-143.84;95.54
6032;BME280;3044;43.232;27.972;2023-01-16T00:14:29;44112.34;;;-143.84;95.89
6032;BME280;3044;43.232;27.972;2023-01-16T00:16:56;44116.16;;;-143.84;95.27
6032;BME280;3044;43.232;27.972;2023-01-16T00:19:24;44116.16;;;-143.84;95.32
6032;BME280;3044;43.232;27.972;2023-01-16T00:21:51;44104.72;;;-143.84;95.32
6032;BME280;3044;43.232;27.972;2023-01-16T00:24:18;44112.34;;;-143.84;95.53
6032;BME280;3044;43.232;27.972;2023-01-16T00:26:45;44108.53;;;-143.84;95.38
6032;BME280;3044;43.232;27.972;2023-01-16T00:29:17;44119.97;;;-143.84;95.17
6032;BME280;3044;43.232;27.972;2023-01-16T00:31:45;44095.22;;;-143.84;94.83
6032;BME280;3044;43.232;27.972;2023-01-16T00:34:12;44095.22;;;-143.84;94.64
6032;BME280;3044;43.232;27.972;2023-01-16T00:36:39;44100.94;;;-143.84;94.84
6032;BME280;3044;43.232;27.972;2023-01-16T00:39:06;44104.72;;;-143.84;94.60
6032;BME280;3044;43.232;27.972;2023-01-16T00:41:34;44100.94;;;-143.84;94.48
6032;BME280;3044;43.232;27.972;2023-01-16T00:44:01;44104.72;;;-143.84;94.71
6032;BME280;3044;43.232;27.972;2023-01-16T00:46:30;44100.94;;;-143.84;94.93
6032;BME280;3044;43.232;27.972;2023-01-16T00:48:58;44108.53;;;-143.84;95.34
6032;BME280;3044;43.232;27.972;2023-01-16T00:51:25;44119.97;;;-143.84;95.45
6032;BME280;3044;43.232;27.972;2023-01-16T00:53:52;44121.88;;;-143.84;95.25
6032;BME280;3044;43.232;27.972;2023-01-16T00:56:20;44118.06;;;-143.84;95.67
6032;BME280;3044;43.232;27.972;2023-01-16T00:58:47;44127.56;;;-143.84;95.54
6032;BME280;3044;43.232;27.972;2023-01-16T01:01:14;44118.06;;;-143.84;95.86
6032;BME280;3044;43.232;27.972;2023-01-16T01:03:42;44127.56;;;-143.84;96.16
6032;BME280;3044;43.232;27.972;2023-01-16T01:06:10;44131.38;;;-143.84;96.18
6032;BME280;3044;43.232;27.972;2023-01-16T01:08:37;44139.00;;;-143.84;96.30
6032;BME280;3044;43.232;27.972;2023-01-16T01:11:10;44129.47;;;-143.84;96.39
6032;BME280;3044;43.232;27.972;2023-01-16T01:13:38;44139.00;;;-143.84;96.13
6032;BME280;3044;43.232;27.972;2023-01-16T01:16:06;44150.41;;;-143.84;96.60
6032;BME280;3044;43.232;27.972;2023-01-16T01:18:34;44154.22;;;-143.84;96.98
6032;BME280;3044;43.232;27.972;2023-01-16T01:21:03;44167.56;;;-143.84;96.82
6032;BME280;3044;43.232;27.972;2023-01-16T01:23:30;44177.06;;;-143.84;96.70
6032;BME280;3044;43.232;27.972;2023-01-16T01:25:57;44175.16;;;-143.84;97.04
6032;BME280;3044;43.232;27.972;2023-01-16T01:28:24;44173.25;;;-143.84;96.78
6032;BME280;3044;43.232;27.972;2023-01-16T01:30:51;44182.78;;;-143.84;96.68
6032;BME280;3044;43.232;27.972;2023-01-16T01:33:18;44173.25;;;-143.84;97.02
6032;BME280;3044;43.232;27.972;2023-01-16T01:35:46;44178.97;;;-143.84;97.09
6032;BME280;3044;43.232;27.972;2023-01-16T01:38:14;44194.22;;;-143.84;97.33
6032;BME280;3044;43.232;27.972;2023-01-16T01:40:41;44199.91;;;-143.84;97.87
6032;BME280;3044;43.232;27.972;2023-01-16T01:43:13;44207.53;;;-143.84;98.01
6032;BME280;3044;43.232;27.972;2023-01-16T01:45:43;44224.66;;;-143.84;98.09
6032;BME280;3044;43.232;27.972;2023-01-16T01:48:20;44230.38;;;-143.84;97.85
6032;BME280;3044;43.232;27.972;2023-01-16T01:50:53;44251.31;;;-143.84;98.83
6032;BME280;3044;43.232;27.972;2023-01-16T01:53:26;44268.44;;;-143.84;98.78
6032;BME280;3044;43.232;27.972;2023-01-16T01:55:54;44285.59;;;-143.84;98.57
6032;BME280;3044;43.232;27.972;2023-01-16T01:58:25;44304.63;;;-143.84;99.42
6032;BME280;3044;43.232;27.972;2023-01-16T02:00:56;44327.47;;;-143.84;99.41
6032;BME280;3044;43.232;27.972;2023-01-16T02:03:27;44356.03;;;-143.84;99.63
6032;BME280;3044;43.232;27.972;2023-01-16T02:06:00;44378.88;;;-143.84;99.67
6032;BME280;3044;43.232;27.972;2023-01-16T02:08:31;44388.38;;;-143.84;99.87
6032;BME280;3044;43.232;27.972;2023-01-16T02:11:03;44397.91;;;-143.84;99.79
6032;BME280;3044;43.232;27.972;2023-01-16T02:13:32;44401.72;;;-143.84;99.97
6032;BME280;3044;43.232;27.972;2023-01-16T02:15:59;44407.44;;;-143.84;100.00
6032;BME280;3044;43.232;27.972;2023-01-16T02:18:45;44396.00;;;-143.84;99.71
6032;BME280;3044;43.232;27.972;2023-01-16T02:27:46;44413.13;;;-143.84;99.72
6032;BME280;3044;43.232;27.972;2023-01-16T02:33:25;44424.56;;;-143.84;99.75
6032;BME280;3044;43.232;27.972;2023-01-16T02:36:01;44420.75;;;-143.84;99.63
6032;BME280;3044;43.232;27.972;2023-01-16T02:38:35;44418.84;;;-143.84;99.77
6032;BME280;3044;43.232;27.972;2023-01-16T02:41:12;44418.84;;;-143.84;99.92
6032;BME280;3044;43.232;27.972;2023-01-16T02:43:48;44409.34;;;-143.84;99.81
6032;BME280;3044;43.232;27.972;2023-01-16T02:46:25;44411.22;;;-143.84;99.77
6032;BME280;3044;43.232;27.972;2023-01-16T02:49:03;44415.03;;;-143.84;99.79
6032;BME280;3044;43.232;27.972;2023-01-16T02:51:37;44416.94;;;-143.84;99.62
6032;BME280;3044;43.232;27.972;2023-01-16T02:54:09;44413.13;;;-143.84;99.73
6032;BME280;3044;43.232;27.972;2023-01-16T02:56:41;44420.75;;;-143.84;100.00
6032;BME280;3044;43.232;27.972;2023-01-16T02:59:12;44409.34;;;-143.84;99.83
6032;BME280;3044;43.232;27.972;2023-01-16T03:01:41;44409.34;;;-143.84;99.35
6032;BME280;3044;43.232;27.972;2023-01-16T03:04:40;44415.03;;;-143.84;99.96
6032;BME280;3044;43.232;27.972;2023-01-16T03:07:38;44413.13;;;-143.84;99.50
6032;BME280;3044;43.232;27.972;2023-01-16T03:10:33;44409.34;;;-143.84;99.62
6032;BME280;3044;43.232;27.972;2023-01-16T03:13:14;44413.13;;;-143.84;99.29
6032;BME280;3044;43.232;27.972;2023-01-16T03:15:50;44409.34;;;-143.84;99.69
6032;BME280;3044;43.232;27.972;2023-01-16T03:18:27;44407.44;;;-143.84;99.52
6032;BME280;3044;43.232;27.972;2023-01-16T03:21:04;44390.28;;;-143.84;99.06
6032;BME280;3044;43.232;27.972;2023-01-16T03:23:41;44380.78;;;-143.84;98.77
6032;BME280;3044;43.232;27.972;2023-01-16T03:26:14;44367.44;;;-143.84;99.30
6032;BME280;3044;43.232;27.972;2023-01-16T03:28:49;44354.13;;;-143.84;98.82
6032;BME280;3044;43.232;27.972;2023-01-16T03:31:27;44356.03;;;-143.84;99.10
6032;BME280;3044;43.232;27.972;2023-01-16T03:34:03;44335.09;;;-143.84;98.40
6032;BME280;3044;43.232;27.972;2023-01-16T03:36:42;44346.50;;;-143.84;98.55
6032;BME280;3044;43.232;27.972;2023-01-16T03:39:13;44352.22;;;-143.84;98.46
6032;BME280;3044;43.232;27.972;2023-01-16T03:41:43;44346.50;;;-143.84;98.69
6032;BME280;3044;43.232;27.972;2023-01-16T03:44:14;44361.72;;;-143.84;99.00
6032;BME280;3044;43.232;27.972;2023-01-16T03:46:48;44354.13;;;-143.84;98.92
6032;BME280;3044;43.232;27.972;2023-01-16T03:49:19;44350.31;;;-143.84;98.65
6032;BME280;3044;43.232;27.972;2023-01-16T03:51:51;44333.19;;;-143.84;98.78
6032;BME280;3044;43.232;27.972;2023-01-16T03:54:28;44314.13;;;-143.84;98.49
6032;BME280;3044;43.232;27.972;2023-01-16T03:57:03;44312.25;;;-143.84;98.34
6032;BME280;3044;43.232;27.972;2023-01-16T03:59:35;44312.25;;;-143.84;98.38
6032;BME280;3044;43.232;27.972;2023-01-16T04:02:10;44310.34;;;-143.84;98.54
6032;BME280;3044;43.232;27.972;2023-01-16T04:04:43;44295.09;;;-143.84;98.36
6032;BME280;3044;43.232;27.972;2023-01-16T04:07:17;44287.50;;;-143.84;98.31
6032;BME280;3044;43.232;27.972;2023-01-16T04:09:51;44289.41;;;-143.84;97.93
6032;BME280;3044;43.232;27.972;2023-01-16T04:12:23;44297.00;;;-143.84;97.98
6032;BME280;3044;43.232;27.972;2023-01-16T04:14:55;44306.53;;;-143.84;98.26
6032;BME280;3044;43.232;27.972;2023-01-16T04:17:23;44312.25;;;-143.84;98.53
6032;BME280;3044;43.232;27.972;2023-01-16T04:19:52;44310.34;;;-143.84;98.39
6032;BME280;3044;43.232;27.972;2023-01-16T04:22:22;44304.63;;;-143.84;98.34
6032;BME280;3044;43.232;27.972;2023-01-16T04:24:51;44289.41;;;-143.84;97.77
6032;BME280;3044;43.232;27.972;2023-01-16T04:27:19;44276.06;;;-143.84;97.93
6032;BME280;3044;43.232;27.972;2023-01-16T04:29:47;44276.06;;;-143.84;97.72
6032;BME280;3044;43.232;27.972;2023-01-16T04:32:14;44270.34;;;-143.84;97.75
6032;BME280;3044;43.232;27.972;2023-01-16T04:34:41;44253.22;;;-143.84;97.81
6032;BME280;3044;43.232;27.972;2023-01-16T04:37:09;44238.00;;;-143.84;97.45
6032;BME280;3044;43.232;27.972;2023-01-16T04:39:40;44224.66;;;-143.84;97.04
6032;BME280;3044;43.232;27.972;2023-01-16T04:42:08;44218.94;;;-143.84;97.06
6032;BME280;3044;43.232;27.972;2023-01-16T04:44:35;44203.72;;;-143.84;96.58
6032;BME280;3044;43.232;27.972;2023-01-16T04:47:03;44196.13;;;-143.84;96.28
6032;BME280;3044;43.232;27.972;2023-01-16T04:49:32;44184.69;;;-143.84;95.94
6032;BME280;3044;43.232;27.972;2023-01-16T04:51:59;44180.88;;;-143.84;96.30
6032;BME280;3044;43.232;27.972;2023-01-16T04:54:26;44178.97;;;-143.84;96.42
6032;BME280;3044;43.232;27.972;2023-01-16T04:56:55;44177.06;;;-143.84;96.02
6032;BME280;3044;43.232;27.972;2023-01-16T04:59:22;44173.25;;;-143.84;96.09
6032;BME280;3044;43.232;27.972;2023-01-16T05:01:49;44169.47;;;-143.84;96.14
6032;BME280;3044;43.232;27.972;2023-01-16T05:04:16;44182.78;;;-143.84;96.25
6032;BME280;3044;43.232;27.972;2023-01-16T05:06:43;44177.06;;;-143.84;95.97
6032;BME280;3044;43.232;27.972;2023-01-16T05:09:11;44163.75;;;-143.84;95.62
6032;BME280;3044;43.232;27.972;2023-01-16T05:11:38;44154.22;;;-143.84;95.36
6032;BME280;3044;43.232;27.972;2023-01-16T05:14:07;44158.03;;;-143.84;95.73
6032;BME280;3044;43.232;27.972;2023-01-16T05:16:36;44158.03;;;-143.84;95.20
6032;BME280;3044;43.232;27.972;2023-01-16T05:19:04;44139.00;;;-143.84;95.01
6032;BME280;3044;43.232;27.972;2023-01-16T05:21:31;44133.28;;;-143.84;94.79
6032;BME280;3044;43.232;27.972;2023-01-16T05:23:59;44129.47;;;-143.84;94.60
6032;BME280;3044;43.232;27.972;2023-01-16T05:26:26;44129.47;;;-143.84;94.58
6032;BME280;3044;43.232;27.972;2023-01-16T05:28:53;44131.38;;;-143.84;94.93
6032;BME280;3044;43.232;27.972;2023-01-16T05:31:22;44135.19;;;-143.84;94.50
6032;BME280;3044;43.232;27.972;2023-01-16T05:33:49;44135.19;;;-143.84;94.93
6032;BME280;3044;43.232;27.972;2023-01-16T05:36:16;44131.38;;;-143.84;94.57
6032;BME280;3044;43.232;27.972;2023-01-16T05:38:43;44114.25;;;-143.84;93.81
6032;BME280;3044;43.232;27.972;2023-01-16T05:41:12;44116.16;;;-143.84;93.83
6032;BME280;3044;43.232;27.972;2023-01-16T05:43:41;44104.72;;;-143.84;93.96
6032;BME280;3044;43.232;27.972;2023-01-16T05:49:48;44114.25;;;-143.84;93.67
6032;BME280;3044;43.232;27.972;2023-01-16T05:52:16;44110.44;;;-143.84;94.12
6032;BME280;3044;43.232;27.972;2023-01-16T05:54:43;44118.06;;;-143.84;94.13
6032;BME280;3044;43.232;27.972;2023-01-16T05:57:10;44099.03;;;-143.84;93.79
6032;BME280;3044;43.232;27.972;2023-01-16T05:59:38;44106.63;;;-143.84;93.37
6032;BME280;3044;43.232;27.972;2023-01-16T06:02:07;44095.22;;;-143.84;93.79
6032;BME280;3044;43.232;27.972;2023-01-16T06:04:34;44100.94;;;-143.84;93.10
6032;BME280;3044;43.232;27.972;2023-01-16T06:07:03;44095.22;;;-143.84;93.51
6032;BME280;3044;43.232;27.972;2023-01-16T06:09:30;44085.69;;;-143.84;93.59
6032;BME280;3044;43.232;27.972;2023-01-16T06:11:57;44097.13;;;-143.84;93.19
6032;BME280;3044;43.232;27.972;2023-01-16T06:14:25;44089.50;;;-143.84;93.57
6032;BME280;3044;43.232;27.972;2023-01-16T06:16:52;44080.00;;;-143.84;93.57
6032;BME280;3044;43.232;27.972;2023-01-16T06:19:19;44085.69;;;-143.84;93.34
6032;BME280;3044;43.232;27.972;2023-01-16T06:21:46;44093.31;;;-143.84;93.07
6032;BME280;3044;43.232;27.972;2023-01-16T06:24:15;44091.41;;;-143.84;92.34
6032;BME280;3044;43.232;27.972;2023-01-16T06:26:42;44066.66;;;-143.84;92.30
6032;BME280;3044;43.232;27.972;2023-01-16T06:29:09;44066.66;;;-143.84;92.37
6032;BME280;3044;43.232;27.972;2023-01-16T06:31:37;44078.09;;;-143.84;92.63
6032;BME280;3044;43.232;27.972;2023-01-16T06:34:04;44060.94;;;-143.84;92.30
6032;BME280;3044;43.232;27.972;2023-01-16T06:36:31;44059.03;;;-143.84;92.92
6032;BME280;3044;43.232;27.972;2023-01-16T06:38:58;44076.19;;;-143.84;92.32
6032;BME280;3044;43.232;27.972;2023-01-16T06:41:26;44066.66;;;-143.84;92.72
6032;BME280;3044;43.232;27.972;2023-01-16T06:43:54;44070.47;;;-143.84;92.60
6032;BME280;3044;43.232;27.972;2023-01-16T06:46:21;44078.09;;;-143.84;92.26
6032;BME280;3044;43.232;27.972;2023-01-16T06:48:48;44072.38;;;-143.84;92.71
6032;BME280;3044;43.232;27.972;2023-01-16T06:51:15;44059.03;;;-143.84;91.95
6032;BME280;3044;43.232;27.972;2023-01-16T06:53:42;44060.94;;;-143.84;92.48
6032;BME280;3044;43.232;27.972;2023-01-16T06:56:09;44074.28;;;-143.84;92.17
6032;BME280;3044;43.232;27.972;2023-01-16T06:58:38;44060.94;;;-143.84;92.29
6032;BME280;3044;43.232;27.972;2023-01-16T07:01:05;44041.91;;;-143.84;92.16
6032;BME280;3044;43.232;27.972;2023-01-16T07:03:33;44043.81;;;-143.84;91.35
6032;BME280;3044;43.232;27.972;2023-01-16T07:06:00;44043.81;;;-143.84;91.44
6032;BME280;3044;43.232;27.972;2023-01-16T07:08:27;44036.22;;;-143.84;91.58
6032;BME280;3044;43.232;27.972;2023-01-16T07:10:58;44036.22;;;-143.84;91.00
6032;BME280;3044;43.232;27.972;2023-01-16T07:13:25;44034.31;;;-143.84;90.91
6032;BME280;3044;43.232;27.972;2023-01-16T07:15:55;44034.31;;;-143.84;91.59
6032;BME280;3044;43.232;27.972;2023-01-16T07:18:39;44043.81;;;-143.84;90.86
6032;BME280;3044;43.232;27.972;2023-01-16T07:21:32;44020.97;;;-143.84;91.15
6032;BME280;3044;43.232;27.972;2023-01-16T07:24:20;44020.97;;;-143.84;90.93
6032;BME280;3044;43.232;27.972;2023-01-16T07:26:51;44005.75;;;-143.84;90.26
6032;BME280;3044;43.232;27.972;2023-01-16T07:29:19;44005.75;;;-143.84;89.97
6032;BME280;3044;43.232;27.972;2023-01-16T07:31:48;44007.66;;;-143.84;89.76
6032;BME280;3044;43.232;27.972;2023-01-16T07:34:15;44001.94;;;-143.84;90.07
6032;BME280;3044;43.232;27.972;2023-01-16T07:36:42;44022.88;;;-143.84;90.12
6032;BME280;3044;43.232;27.972;2023-01-16T07:39:09;43986.72;;;-143.84;89.76
6032;BME280;3044;43.232;27.972;2023-01-16T07:41:36;43984.81;;;-143.84;89.19
6032;BME280;3044;43.232;27.972;2023-01-16T07:44:04;43996.22;;;-143.84;89.44
6032;BME280;3044;43.232;27.972;2023-01-16T07:46:31;43979.09;;;-143.84;89.30
6032;BME280;3044;43.232;27.972;2023-01-16T07:49:00;43982.91;;;-143.84;89.17
6032;BME280;3044;43.232;27.972;2023-01-16T07:51:28;43973.38;;;-143.84;89.30
6032;BME280;3044;43.232;27.972;2023-01-16T07:53:55;43984.81;;;-143.84;89.57
6032;BME280;3044;43.232;27.972;2023-01-16T07:56:22;43982.91;;;-143.84;89.10
6032;BME280;3044;43.232;27.972;2023-01-16T07:58:50;43946.75;;;-143.84;88.15
6032;BME280;3044;43.232;27.972;2023-01-16T08:01:20;43965.78;;;-143.84;88.42
6032;BME280;3044;43.232;27.972;2023-01-16T08:03:47;43961.97;;;-143.84;87.88
6032;BME280;3044;43.232;27.972;2023-01-16T08:06:16;43954.34;;;-143.84;87.88
6032;BME280;3044;43.232;27.972;2023-01-16T08:08:43;43929.59;;;-143.84;87.43
6032;BME280;3044;43.232;27.972;2023-01-16T08:11:10;43961.97;;;-143.84;88.12
6032;BME280;3044;43.232;27.972;2023-01-16T08:13:54;43960.06;;;-143.84;88.08
6032;BME280;3044;43.232;27.972;2023-01-16T08:16:21;43929.59;;;-143.84;86.98
6032;BME280;3044;43.232;27.972;2023-01-16T08:18:48;43904.84;;;-143.84;86.62
6032;BME280;3044;43.232;27.972;2023-01-16T08:21:17;43937.22;;;-143.84;86.71
6032;BME280;3044;43.232;27.972;2023-01-16T08:23:45;43912.47;;;-143.84;86.94
6032;BME280;3044;43.232;27.972;2023-01-16T08:26:12;43925.78;;;-143.84;87.26
6032;BME280;3044;43.232;27.972;2023-01-16T08:28:40;43941.03;;;-143.84;87.47
6032;BME280;3044;43.232;27.972;2023-01-16T08:31:09;43939.13;;;-143.84;88.29
6032;BME280;3044;43.232;27.972;2023-01-16T08:33:38;43950.53;;;-143.84;88.19
6032;BME280;3044;43.232;27.972;2023-01-16T08:36:08;43975.28;;;-143.84;88.30
6032;BME280;3044;43.232;27.972;2023-01-16T08:38:37;43975.28;;;-143.84;89.04
6032;BME280;3044;43.232;27.972;2023-01-16T08:41:05;43973.38;;;-143.84;88.77
6032;BME280;3044;43.232;27.972;2023-01-16T08:43:52;43986.72;;;-143.84;89.40
6032;BME280;3044;43.232;27.972;2023-01-16T08:46:37;43979.09;;;-143.84;89.42
6032;BME280;3044;43.232;27.972;2023-01-16T08:49:21;43965.78;;;-143.84;88.96
6032;BME280;3044;43.232;27.972;2023-01-16T08:52:06;43977.19;;;-143.84;89.20
6032;BME280;3044;43.232;27.972;2023-01-16T08:54:35;43981.00;;;-143.84;89.15
6032;BME280;3044;43.232;27.972;2023-01-16T08:57:02;43954.34;;;-143.84;88.90
6032;BME280;3044;43.232;27.972;2023-01-16T08:59:30;43944.84;;;-143.84;88.42
6032;BME280;3044;43.232;27.972;2023-01-16T09:02:00;43971.47;;;-143.84;88.44
6032;BME280;3044;43.232;27.972;2023-01-16T09:04:27;43961.97;;;-143.84;88.13
6032;BME280;3044;43.232;27.972;2023-01-16T09:06:54;43922.00;;;-143.84;87.82
6032;BME280;3044;43.232;27.972;2023-01-16T09:09:21;43944.84;;;-143.84;87.66
6032;BME280;3044;43.232;27.972;2023-01-16T09:11:55;43922.00;;;-143.84;87.00
6032;BME280;3044;43.232;27.972;2023-01-16T09:14:40;43944.84;;;-143.84;87.13
6032;BME280;3044;43.232;27.972;2023-01-16T09:17:07;43927.69;;;-143.84;86.52
6032;BME280;3044;43.232;27.972;2023-01-16T09:19:35;43887.72;;;-143.84;85.23
6032;BME280;3044;43.232;27.972;2023-01-16T09:22:03;43899.16;;;-143.84;84.26
6032;BME280;3044;43.232;27.972;2023-01-16T09:24:31;43861.06;;;-143.84;84.04
6032;BME280;3044;43.232;27.972;2023-01-16T09:27:00;43857.28;;;-143.84;83.58
6032;BME280;3044;43.232;27.972;2023-01-16T09:29:27;43861.06;;;-143.84;83.88
6032;BME280;3044;43.232;27.972;2023-01-16T09:31:55;43870.59;;;-143.84;84.92
6032;BME280;3044;43.232;27.972;2023-01-16T09:34:22;43864.88;;;-143.84;84.78
6032;BME280;3044;43.232;27.972;2023-01-16T09:36:49;43925.78;;;-143.84;85.29
6032;BME280;3044;43.232;27.972;2023-01-16T09:39:17;43904.84;;;-143.84;85.54
6032;BME280;3044;43.232;27.972;2023-01-16T09:41:52;43904.84;;;-143.84;84.82
6032;BME280;3044;43.232;27.972;2023-01-16T09:44:43;43874.41;;;-143.84;84.67
6032;BME280;3044;43.232;27.972;2023-01-16T09:47:13;43872.50;;;-143.84;84.14
6032;BME280;3044;43.232;27.972;2023-01-16T09:49:45;43851.56;;;-143.84;84.31
6032;BME280;3044;43.232;27.972;2023-01-16T09:52:17;43862.97;;;-143.84;83.58
6032;BME280;3044;43.232;27.972;2023-01-16T09:55:14;43866.78;;;-143.84;83.84
6032;BME280;3044;43.232;27.972;2023-01-16T09:58:02;43889.63;;;-143.84;83.41
6032;BME280;3044;43.232;27.972;2023-01-16T10:00:49;43872.50;;;-143.84;83.41
6032;BME280;3044;43.232;27.972;2023-01-16T10:03:17;43823.00;;;-143.84;83.31
6032;BME280;3044;43.232;27.972;2023-01-16T10:05:49;43942.94;;;-143.84;82.01
6032;BME280;3044;43.232;27.972;2023-01-16T10:08:24;43944.84;;;-143.84;82.14
6032;BME280;3044;43.232;27.972;2023-01-16T10:10:58;43948.63;;;-143.84;81.77
6032;BME280;3044;43.232;27.972;2023-01-16T10:13:43;43998.13;;;-143.84;81.67
6032;BME280;3044;43.232;27.972;2023-01-16T10:16:21;43868.69;;;-143.84;83.32
6032;BME280;3044;43.232;27.972;2023-01-16T10:18:56;43847.75;;;-143.84;84.40
6032;BME280;3044;43.232;27.972;2023-01-16T10:21:38;43880.13;;;-143.84;84.74
6032;BME280;3044;43.232;27.972;2023-01-16T10:24:15;43868.69;;;-143.84;84.94
6032;BME280;3044;43.232;27.972;2023-01-16T10:26:53;43920.09;;;-143.84;86.03
6032;BME280;3044;43.232;27.972;2023-01-16T10:29:25;43937.22;;;-143.84;87.44
6032;BME280;3044;43.232;27.972;2023-01-16T10:32:00;43958.16;;;-143.84;88.10
6032;BME280;3044;43.232;27.972;2023-01-16T10:34:33;43912.47;;;-143.84;87.24
6032;BME280;3044;43.232;27.972;2023-01-16T10:37:04;43935.31;;;-143.84;87.66
6032;BME280;3044;43.232;27.972;2023-01-16T10:39:33;43956.25;;;-143.84;88.30
6032;BME280;3044;43.232;27.972;2023-01-16T10:42:09;43942.94;;;-143.84;87.67
6032;BME280;3044;43.232;27.972;2023-01-16T10:45:00;43960.06;;;-143.84;88.20
6032;BME280;3044;43.232;27.972;2023-01-16T10:47:53;43979.09;;;-143.84;88.82
6032;BME280;3044;43.232;27.972;2023-01-16T10:50:39;43948.63;;;-143.84;87.36
6032;BME280;3044;43.232;27.972;2023-01-16T10:53:08;43925.78;;;-143.84;87.52
6032;BME280;3044;43.232;27.972;2023-01-16T10:55:39;43950.53;;;-143.84;87.93
6032;BME280;3044;43.232;27.972;2023-01-16T10:58:18;43944.84;;;-143.84;87.39
6032;BME280;3044;43.232;27.972;2023-01-16T11:00:48;43939.13;;;-143.84;87.43
6032;BME280;3044;43.232;27.972;2023-01-16T11:03:21;43941.03;;;-143.84;87.87
6032;BME280;3044;43.232;27.972;2023-01-16T11:05:50;43950.53;;;-143.84;88.21
6032;BME280;3044;43.232;27.972;2023-01-16T11:08:19;43975.28;;;-143.84;89.13
6032;BME280;3044;43.232;27.972;2023-01-16T11:10:48;43986.72;;;-143.84;89.30
6032;BME280;3044;43.232;27.972;2023-01-16T11:13:19;44001.94;;;-143.84;89.55
6032;BME280;3044;43.232;27.972;2023-01-16T11:16:08;43973.38;;;-143.84;88.84
6032;BME280;3044;43.232;27.972;2023-01-16T11:19:15;43939.13;;;-143.84;88.13
6032;BME280;3044;43.232;27.972;2023-01-16T11:21:44;43975.28;;;-143.84;88.67
6032;BME280;3044;43.232;27.972;2023-01-16T11:24:16;43984.81;;;-143.84;89.17
6032;BME280;3044;43.232;27.972;2023-01-16T11:26:52;43984.81;;;-143.84;90.30
6032;BME280;3044;43.232;27.972;2023-01-16T11:29:22;44015.25;;;-143.84;90.69
6032;BME280;3044;43.232;27.972;2023-01-16T11:31:53;44028.59;;;-143.84;90.94
6032;BME280;3044;43.232;27.972;2023-01-16T11:34:25;44026.69;;;-143.84;91.35
6032;BME280;3044;43.232;27.972;2023-01-16T11:36:55;44032.41;;;-143.84;91.06
6032;BME280;3044;43.232;27.972;2023-01-16T11:39:25;44024.78;;;-143.84;91.32
6032;BME280;3044;43.232;27.972;2023-01-16T11:41:56;44028.59;;;-143.84;91.29
6032;BME280;3044;43.232;27.972;2023-01-16T11:44:26;44043.81;;;-143.84;91.53
6032;BME280;3044;43.232;27.972;2023-01-16T11:47:14;44057.16;;;-143.84;92.25
6032;BME280;3044;43.232;27.972;2023-01-16T11:49:46;44085.69;;;-143.84;93.02
6032;BME280;3044;43.232;27.972;2023-01-16T11:52:16;44085.69;;;-143.84;93.08
6032;BME280;3044;43.232;27.972;2023-01-16T11:54:53;44091.41;;;-143.84;93.63
6032;BME280;3044;43.232;27.972;2023-01-16T11:57:28;44095.22;;;-143.84;93.59
6032;BME280;3044;43.232;27.972;2023-01-16T12:00:20;44108.53;;;-143.84;93.98
6032;BME280;3044;43.232;27.972;2023-01-16T12:05:59;44097.13;;;-143.84;93.45
6032;BME280;3044;43.232;27.972;2023-01-16T12:08:39;44102.84;;;-143.84;93.82
6032;BME280;3044;43.232;27.972;2023-01-16T12:11:14;44108.53;;;-143.84;94.17
6032;BME280;3044;43.232;27.972;2023-01-16T12:13:48;44121.88;;;-143.84;94.43
6032;BME280;3044;43.232;27.972;2023-01-16T12:16:49;44137.09;;;-143.84;94.98
6032;BME280;3044;43.232;27.972;2023-01-16T12:19:52;44159.94;;;-143.84;95.74
6032;BME280;3044;43.232;27.972;2023-01-16T12:22:36;44171.38;;;-143.84;96.16
6032;BME280;3044;43.232;27.972;2023-01-16T12:25:15;44186.59;;;-143.84;96.29
6032;BME280;3044;43.232;27.972;2023-01-16T12:27:51;44173.25;;;-143.84;95.99
6032;BME280;3044;43.232;27.972;2023-01-16T12:30:25;44173.25;;;-143.84;95.87
6032;BME280;3044;43.232;27.972;2023-01-16T12:33:03;44165.66;;;-143.84;95.89
6032;BME280;3044;43.232;27.972;2023-01-16T12:35:47;44184.69;;;-143.84;96.04
6032;BME280;3044;43.232;27.972;2023-01-16T12:38:26;44194.22;;;-143.84;96.52
6032;BME280;3044;43.232;27.972;2023-01-16T12:41:18;44222.75;;;-143.84;97.18
6032;BME280;3044;43.232;27.972;2023-01-16T12:44:27;44260.84;;;-143.84;97.65
6032;BME280;3044;43.232;27.972;2023-01-16T12:47:11;44285.59;;;-143.84;98.08
6032;BME280;3044;43.232;27.972;2023-01-16T12:49:53;44317.94;;;-143.84;98.32
6032;BME280;3044;43.232;27.972;2023-01-16T12:52:40;44333.19;;;-143.84;98.49
6032;BME280;3044;43.232;27.972;2023-01-16T12:55:22;44386.47;;;-143.84;98.94
6032;BME280;3044;43.232;27.972;2023-01-16T12:58:05;44403.63;;;-143.84;99.34
6032;BME280;3044;43.232;27.972;2023-01-16T13:00:40;44401.72;;;-143.84;99.30
6032;BME280;3044;43.232;27.972;2023-01-16T13:03:14;44411.22;;;-143.84;99.42
6032;BME280;3044;43.232;27.972;2023-01-16T13:05:44;44416.94;;;-143.84;99.38
6032;BME280;3044;43.232;27.972;2023-01-16T13:08:17;44422.66;;;-143.84;99.66
6032;BME280;3044;43.232;27.972;2023-01-16T13:10:52;44435.97;;;-143.84;99.73
6032;BME280;3044;43.232;27.972;2023-01-16T13:13:52;44443.59;;;-143.84;99.88
6032;BME280;3044;43.232;27.972;2023-01-16T13:16:23;44439.78;;;-143.84;99.88
6032;BME280;3044;43.232;27.972;2023-01-16T13:18:56;44434.09;;;-143.84;99.72
6032;BME280;3044;43.232;27.972;2023-01-16T13:21:27;44449.31;;;-143.84;100.00
6032;BME280;3044;43.232;27.972;2023-01-16T13:23:58;44443.59;;;-143.84;100.00
6032;BME280;3044;43.232;27.972;2023-01-16T13:26:31;44445.50;;;-143.84;100.00
6032;BME280;3044;43.232;27.972;2023-01-16T13:29:05;44445.50;;;-143.84;99.99
6032;BME280;3044;43.232;27.972;2023-01-16T13:31:39;44437.88;;;-143.84;99.44
6032;BME280;3044;43.232;27.972;2023-01-16T13:34:13;44434.09;;;-143.84;99.73